sensor_id;sensor_type;location;lat;lon;timestamp;P1;durP1;ratioP1;P2;durP2;ratioP2
69410;SDS011;56604;48.652;9.194;2022-09-13T00:00:41;3.37;;;1.90;;
69410;SDS011;56604;48.652;9.194;2022-09-13T00:03:08;1.93;;;1.83;;
69410;SDS011;56604;48.652;9.194;2022-09-13T00:05:35;2.27;;;2.17;;
69410;SDS011;56604;48.652;9.194;2022-09-13T00:08:01;2.60;;;2.20;;
69410;SDS011;56604;48.652;9.194;2022-09-13T00:10:27;2.90;;;1.77;;
69410;SDS011;56604;48.652;9.194;2022-09-13T00:12:53;1.97;;;1.90;;
69410;SDS011;56604;48.652;9.194;2022-09-13T00:15:18;2.50;;;1.90;;
69410;SDS011;56604;48.652;9.194;2022-09-13T00:17:44;2.03;;;1.63;;
69410;SDS011;56604;48.652;9.194;2022-09-13T00:20:09;5.20;;;1.93;;
69410;SDS011;56604;48.652;9.194;2022-09-13T00:22:35;1.83;;;1.73;;
69410;SDS011;56604;48.652;9.194;2022-09-13T00:25:02;2.60;;;2.40;;
69410;SDS011;56604;48.652;9.194;2022-09-13T00:27:28;2.53;;;2.37;;
69410;SDS011;56604;48.652;9.194;2022-09-13T00:29:53;3.40;;;1.80;;
69410;SDS011;56604;48.652;9.194;2022-09-13T00:32:19;2.07;;;1.97;;
69410;SDS011;56604;48.652;9.194;2022-09-13T00:34:44;1.80;;;1.70;;
69410;SDS011;56604;48.652;9.194;2022-09-13T00:37:09;2.57;;;1.80;;
69410;SDS011;56604;48.652;9.194;2022-09-13T00:39:35;3.17;;;2.03;;
69410;SDS011;56604;48.652;9.194;2022-09-13T00:42:00;3.23;;;2.10;;
69410;SDS011;56604;48.652;9.194;2022-09-13T00:47:20;1.40;;;1.40;;
69410;SDS011;56604;48.652;9.194;2022-09-13T00:50:10;4.10;;;1.97;;
69410;SDS011;56604;48.652;9.194;2022-09-13T00:52:44;1.70;;;1.60;;
69410;SDS011;56604;48.652;9.194;2022-09-13T00:55:36;3.10;;;2.10;;
69410;SDS011;56604;48.652;9.194;2022-09-13T00:58:07;1.73;;;1.60;;
69410;SDS011;56604;48.652;9.194;2022-09-13T01:00:36;2.43;;;1.67;;
69410;SDS011;56604;48.652;9.194;2022-09-13T01:03:05;2.00;;;1.90;;
69410;SDS011;56604;48.652;9.194;2022-09-13T01:05:41;1.83;;;1.77;;
69410;SDS011;56604;48.652;9.194;2022-09-13T01:08:09;1.90;;;1.70;;
69410;SDS011;56604;48.652;9.194;2022-09-13T01:10:39;1.83;;;1.70;;
69410;SDS011;56604;48.652;9.194;2022-09-13T01:13:10;2.00;;;1.83;;
69410;SDS011;56604;48.652;9.194;2022-09-13T01:15:40;2.03;;;1.93;;
69410;SDS011;56604;48.652;9.194;2022-09-13T01:18:06;2.17;;;1.97;;
69410;SDS011;56604;48.652;9.194;2022-09-13T01:23:12;4.53;;;2.43;;
69410;SDS011;56604;48.652;9.194;2022-09-13T01:26:12;2.10;;;2.00;;
69410;SDS011;56604;48.652;9.194;2022-09-13T01:31:24;1.60;;;1.50;;
69410;SDS011;56604;48.652;9.194;2022-09-13T01:39:26;5.30;;;2.10;;
69410;SDS011;56604;48.652;9.194;2022-09-13T01:47:32;2.10;;;2.00;;
69410;SDS011;56604;48.652;9.194;2022-09-13T01:53:12;1.97;;;1.87;;
69410;SDS011;56604;48.652;9.194;2022-09-13T01:55:49;5.93;;;2.10;;
69410;SDS011;56604;48.652;9.194;2022-09-13T02:01:10;4.57;;;2.37;;
69410;SDS011;56604;48.652;9.194;2022-09-13T02:03:44;2.67;;;2.47;;
69410;SDS011;56604;48.652;9.194;2022-09-13T02:06:18;20.50;;;2.37;;
69410;SDS011;56604;48.652;9.194;2022-09-13T02:08:47;5.33;;;2.40;;
69410;SDS011;56604;48.652;9.194;2022-09-13T02:11:15;3.70;;;1.90;;
69410;SDS011;56604;48.652;9.194;2022-09-13T02:13:55;2.53;;;2.33;;
69410;SDS011;56604;48.652;9.194;2022-09-13T02:19:11;2.43;;;2.33;;
69410;SDS011;56604;48.652;9.194;2022-09-13T02:21:41;2.67;;;2.40;;
69410;SDS011;56604;48.652;9.194;2022-09-13T02:24:16;2.57;;;2.47;;
69410;SDS011;56604;48.652;9.194;2022-09-13T02:26:46;6.30;;;2.60;;
69410;SDS011;56604;48.652;9.194;2022-09-13T02:29:17;2.20;;;2.10;;
69410;SDS011;56604;48.652;9.194;2022-09-13T02:31:54;2.73;;;2.53;;
69410;SDS011;56604;48.652;9.194;2022-09-13T02:34:25;4.57;;;2.50;;
69410;SDS011;56604;48.652;9.194;2022-09-13T02:36:57;4.27;;;2.63;;
69410;SDS011;56604;48.652;9.194;2022-09-13T02:39:26;2.03;;;2.03;;
69410;SDS011;56604;48.652;9.194;2022-09-13T02:41:55;2.50;;;2.40;;
69410;SDS011;56604;48.652;9.194;2022-09-13T02:58:24;4.00;;;2.80;;
69410;SDS011;56604;48.652;9.194;2022-09-13T03:00:56;3.33;;;2.10;;
69410;SDS011;56604;48.652;9.194;2022-09-13T03:03:21;7.13;;;2.70;;
69410;SDS011;56604;48.652;9.194;2022-09-13T03:05:48;9.43;;;2.50;;
69410;SDS011;56604;48.652;9.194;2022-09-13T03:08:13;2.50;;;2.40;;
69410;SDS011;56604;48.652;9.194;2022-09-13T03:18:47;4.80;;;2.53;;
69410;SDS011;56604;48.652;9.194;2022-09-13T03:21:24;2.93;;;2.70;;
69410;SDS011;56604;48.652;9.194;2022-09-13T03:26:45;2.87;;;2.50;;
69410;SDS011;56604;48.652;9.194;2022-09-13T03:29:34;2.10;;;2.00;;
69410;SDS011;56604;48.652;9.194;2022-09-13T03:45:32;3.20;;;2.90;;
69410;SDS011;56604;48.652;9.194;2022-09-13T03:48:03;4.40;;;2.70;;
69410;SDS011;56604;48.652;9.194;2022-09-13T03:50:30;5.60;;;2.70;;
69410;SDS011;56604;48.652;9.194;2022-09-13T03:53:01;2.83;;;2.60;;
69410;SDS011;56604;48.652;9.194;2022-09-13T03:55:31;2.83;;;2.70;;
69410;SDS011;56604;48.652;9.194;2022-09-13T03:57:58;5.03;;;2.80;;
69410;SDS011;56604;48.652;9.194;2022-09-13T04:00:24;4.87;;;3.30;;
69410;SDS011;56604;48.652;9.194;2022-09-13T04:02:49;4.73;;;3.13;;
69410;SDS011;56604;48.652;9.194;2022-09-13T04:05:15;3.30;;;3.07;;
69410;SDS011;56604;48.652;9.194;2022-09-13T04:07:40;2.63;;;2.53;;
69410;SDS011;56604;48.652;9.194;2022-09-13T04:10:05;3.13;;;2.93;;
69410;SDS011;56604;48.652;9.194;2022-09-13T04:12:31;2.80;;;2.60;;
69410;SDS011;56604;48.652;9.194;2022-09-13T04:14:57;2.80;;;2.60;;
69410;SDS011;56604;48.652;9.194;2022-09-13T04:17:22;5.90;;;2.63;;
69410;SDS011;56604;48.652;9.194;2022-09-13T04:19:47;21.33;;;2.77;;
69410;SDS011;56604;48.652;9.194;2022-09-13T04:22:14;7.00;;;3.40;;
69410;SDS011;56604;48.652;9.194;2022-09-13T04:24:39;7.70;;;3.33;;
69410;SDS011;56604;48.652;9.194;2022-09-13T04:27:05;7.80;;;3.37;;
69410;SDS011;56604;48.652;9.194;2022-09-13T04:29:31;3.23;;;3.03;;
69410;SDS011;56604;48.652;9.194;2022-09-13T04:31:57;3.07;;;2.77;;
69410;SDS011;56604;48.652;9.194;2022-09-13T04:34:22;3.53;;;3.23;;
69410;SDS011;56604;48.652;9.194;2022-09-13T04:36:48;2.90;;;2.70;;
69410;SDS011;56604;48.652;9.194;2022-09-13T04:39:15;3.30;;;3.03;;
69410;SDS011;56604;48.652;9.194;2022-09-13T04:41:41;4.43;;;2.90;;
69410;SDS011;56604;48.652;9.194;2022-09-13T04:44:08;4.77;;;3.20;;
69410;SDS011;56604;48.652;9.194;2022-09-13T04:46:34;4.37;;;2.90;;
69410;SDS011;56604;48.652;9.194;2022-09-13T04:48:59;3.30;;;2.93;;
69410;SDS011;56604;48.652;9.194;2022-09-13T04:51:24;3.37;;;2.60;;
69410;SDS011;56604;48.652;9.194;2022-09-13T04:53:53;7.27;;;3.30;;
69410;SDS011;56604;48.652;9.194;2022-09-13T04:56:23;2.97;;;2.77;;
69410;SDS011;56604;48.652;9.194;2022-09-13T04:58:52;4.90;;;3.30;;
69410;SDS011;56604;48.652;9.194;2022-09-13T05:01:19;3.30;;;3.00;;
69410;SDS011;56604;48.652;9.194;2022-09-13T05:03:44;7.27;;;2.87;;
69410;SDS011;56604;48.652;9.194;2022-09-13T05:06:14;3.93;;;2.87;;
69410;SDS011;56604;48.652;9.194;2022-09-13T05:08:42;3.53;;;3.10;;
69410;SDS011;56604;48.652;9.194;2022-09-13T05:11:08;3.30;;;3.00;;
69410;SDS011;56604;48.652;9.194;2022-09-13T05:13:34;4.43;;;3.10;;
69410;SDS011;56604;48.652;9.194;2022-09-13T05:16:01;4.00;;;3.20;;
69410;SDS011;56604;48.652;9.194;2022-09-13T05:18:29;3.20;;;2.90;;
69410;SDS011;56604;48.652;9.194;2022-09-13T05:20:56;2.43;;;2.33;;
69410;SDS011;56604;48.652;9.194;2022-09-13T05:23:23;3.77;;;2.87;;
69410;SDS011;56604;48.652;9.194;2022-09-13T05:26:06;3.33;;;2.57;;
69410;SDS011;56604;48.652;9.194;2022-09-13T05:28:33;5.33;;;2.73;;
69410;SDS011;56604;48.652;9.194;2022-09-13T05:31:00;7.57;;;2.97;;
69410;SDS011;56604;48.652;9.194;2022-09-13T05:33:29;6.13;;;2.30;;
69410;SDS011;56604;48.652;9.194;2022-09-13T05:35:57;8.23;;;2.90;;
69410;SDS011;56604;48.652;9.194;2022-09-13T05:38:22;3.10;;;2.83;;
69410;SDS011;56604;48.652;9.194;2022-09-13T05:40:58;4.40;;;3.10;;
69410;SDS011;56604;48.652;9.194;2022-09-13T05:43:26;2.90;;;2.60;;
69410;SDS011;56604;48.652;9.194;2022-09-13T05:46:07;4.10;;;2.60;;
69410;SDS011;56604;48.652;9.194;2022-09-13T05:48:35;3.90;;;2.87;;
69410;SDS011;56604;48.652;9.194;2022-09-13T05:51:07;4.40;;;2.60;;
69410;SDS011;56604;48.652;9.194;2022-09-13T05:53:41;5.50;;;2.53;;
69410;SDS011;56604;48.652;9.194;2022-09-13T05:56:08;2.60;;;2.40;;
69410;SDS011;56604;48.652;9.194;2022-09-13T05:58:39;4.00;;;2.70;;
69410;SDS011;56604;48.652;9.194;2022-09-13T06:01:05;3.00;;;2.80;;
69410;SDS011;56604;48.652;9.194;2022-09-13T06:03:31;4.03;;;2.77;;
69410;SDS011;56604;48.652;9.194;2022-09-13T06:05:57;4.83;;;2.77;;
69410;SDS011;56604;48.652;9.194;2022-09-13T06:08:25;4.20;;;2.93;;
69410;SDS011;56604;48.652;9.194;2022-09-13T06:10:56;2.57;;;2.47;;
69410;SDS011;56604;48.652;9.194;2022-09-13T06:13:26;3.10;;;2.80;;
69410;SDS011;56604;48.652;9.194;2022-09-13T06:15:53;3.40;;;2.50;;
69410;SDS011;56604;48.652;9.194;2022-09-13T06:18:19;3.00;;;2.63;;
69410;SDS011;56604;48.652;9.194;2022-09-13T06:20:45;11.00;;;2.70;;
69410;SDS011;56604;48.652;9.194;2022-09-13T06:23:10;2.90;;;2.70;;
69410;SDS011;56604;48.652;9.194;2022-09-13T06:25:36;3.20;;;2.90;;
69410;SDS011;56604;48.652;9.194;2022-09-13T06:28:02;2.67;;;2.57;;
69410;SDS011;56604;48.652;9.194;2022-09-13T06:30:27;2.50;;;2.30;;
69410;SDS011;56604;48.652;9.194;2022-09-13T06:32:54;2.70;;;2.50;;
69410;SDS011;56604;48.652;9.194;2022-09-13T06:35:20;2.97;;;2.60;;
69410;SDS011;56604;48.652;9.194;2022-09-13T06:37:46;8.80;;;2.70;;
69410;SDS011;56604;48.652;9.194;2022-09-13T06:40:11;7.90;;;2.80;;
69410;SDS011;56604;48.652;9.194;2022-09-13T06:42:37;3.60;;;3.00;;
69410;SDS011;56604;48.652;9.194;2022-09-13T06:45:03;4.57;;;3.10;;
69410;SDS011;56604;48.652;9.194;2022-09-13T06:47:29;7.20;;;2.63;;
69410;SDS011;56604;48.652;9.194;2022-09-13T06:49:54;3.67;;;3.13;;
69410;SDS011;56604;48.652;9.194;2022-09-13T06:52:20;13.47;;;3.67;;
69410;SDS011;56604;48.652;9.194;2022-09-13T06:54:45;9.30;;;3.87;;
69410;SDS011;56604;48.652;9.194;2022-09-13T06:57:10;6.07;;;4.17;;
69410;SDS011;56604;48.652;9.194;2022-09-13T06:59:36;3.13;;;2.93;;
69410;SDS011;56604;48.652;9.194;2022-09-13T07:02:01;4.13;;;2.93;;
69410;SDS011;56604;48.652;9.194;2022-09-13T07:04:26;2.80;;;2.50;;
69410;SDS011;56604;48.652;9.194;2022-09-13T07:06:55;3.43;;;2.30;;
69410;SDS011;56604;48.652;9.194;2022-09-13T07:09:22;3.23;;;2.40;;
69410;SDS011;56604;48.652;9.194;2022-09-13T07:11:48;2.90;;;2.10;;
69410;SDS011;56604;48.652;9.194;2022-09-13T07:14:17;2.30;;;2.10;;
69410;SDS011;56604;48.652;9.194;2022-09-13T07:16:46;2.47;;;2.20;;
69410;SDS011;56604;48.652;9.194;2022-09-13T07:19:13;2.13;;;1.93;;
69410;SDS011;56604;48.652;9.194;2022-09-13T07:21:40;2.43;;;2.33;;
69410;SDS011;56604;48.652;9.194;2022-09-13T07:24:06;2.37;;;2.17;;
69410;SDS011;56604;48.652;9.194;2022-09-13T07:26:31;2.03;;;1.93;;
69410;SDS011;56604;48.652;9.194;2022-09-13T07:28:58;2.60;;;2.20;;
69410;SDS011;56604;48.652;9.194;2022-09-13T07:31:27;6.77;;;1.80;;
69410;SDS011;56604;48.652;9.194;2022-09-13T07:33:55;2.10;;;2.00;;
69410;SDS011;56604;48.652;9.194;2022-09-13T07:36:22;3.03;;;2.10;;
69410;SDS011;56604;48.652;9.194;2022-09-13T07:38:48;2.27;;;2.07;;
69410;SDS011;56604;48.652;9.194;2022-09-13T07:41:18;3.50;;;2.07;;
69410;SDS011;56604;48.652;9.194;2022-09-13T07:43:46;2.00;;;1.90;;
69410;SDS011;56604;48.652;9.194;2022-09-13T07:46:13;2.57;;;2.10;;
69410;SDS011;56604;48.652;9.194;2022-09-13T07:48:40;2.20;;;2.10;;
69410;SDS011;56604;48.652;9.194;2022-09-13T07:51:08;2.10;;;1.90;;
69410;SDS011;56604;48.652;9.194;2022-09-13T07:53:35;2.30;;;2.10;;
69410;SDS011;56604;48.652;9.194;2022-09-13T07:58:44;2.80;;;1.83;;
69410;SDS011;56604;48.652;9.194;2022-09-13T08:01:24;2.50;;;2.30;;
69410;SDS011;56604;48.652;9.194;2022-09-13T08:06:21;4.07;;;1.90;;
69410;SDS011;56604;48.652;9.194;2022-09-13T08:08:47;1.93;;;1.83;;
69410;SDS011;56604;48.652;9.194;2022-09-13T08:11:15;2.43;;;1.90;;
69410;SDS011;56604;48.652;9.194;2022-09-13T08:13:43;2.33;;;2.10;;
69410;SDS011;56604;48.652;9.194;2022-09-13T08:16:10;4.60;;;1.70;;
69410;SDS011;56604;48.652;9.194;2022-09-13T08:18:35;2.07;;;1.90;;
69410;SDS011;56604;48.652;9.194;2022-09-13T08:21:00;10.30;;;2.00;;
69410;SDS011;56604;48.652;9.194;2022-09-13T08:23:26;3.50;;;2.00;;
69410;SDS011;56604;48.652;9.194;2022-09-13T08:25:51;5.80;;;1.70;;
69410;SDS011;56604;48.652;9.194;2022-09-13T08:28:17;5.80;;;1.73;;
69410;SDS011;56604;48.652;9.194;2022-09-13T08:30:48;1.97;;;1.80;;
69410;SDS011;56604;48.652;9.194;2022-09-13T08:33:14;3.57;;;1.90;;
69410;SDS011;56604;48.652;9.194;2022-09-13T08:35:39;2.50;;;1.87;;
69410;SDS011;56604;48.652;9.194;2022-09-13T08:38:05;2.50;;;1.63;;
69410;SDS011;56604;48.652;9.194;2022-09-13T08:40:33;2.47;;;1.63;;
69410;SDS011;56604;48.652;9.194;2022-09-13T08:45:36;2.93;;;1.37;;
69410;SDS011;56604;48.652;9.194;2022-09-13T08:48:04;2.40;;;1.67;;
69410;SDS011;56604;48.652;9.194;2022-09-13T08:50:38;3.80;;;1.70;;
69410;SDS011;56604;48.652;9.194;2022-09-13T09:01:06;5.03;;;1.63;;
69410;SDS011;56604;48.652;9.194;2022-09-13T09:03:42;1.90;;;1.73;;
69410;SDS011;56604;48.652;9.194;2022-09-13T09:06:13;1.57;;;1.47;;
69410;SDS011;56604;48.652;9.194;2022-09-13T09:08:42;12.33;;;2.53;;
69410;SDS011;56604;48.652;9.194;2022-09-13T09:11:27;3.70;;;1.80;;
69410;SDS011;56604;48.652;9.194;2022-09-13T09:17:10;1.67;;;1.67;;
69410;SDS011;56604;48.652;9.194;2022-09-13T09:19:29;5.70;;;1.50;;
69410;SDS011;56604;48.652;9.194;2022-09-13T09:22:00;2.53;;;1.90;;
69410;SDS011;56604;48.652;9.194;2022-09-13T09:24:30;2.83;;;1.40;;
69410;SDS011;56604;48.652;9.194;2022-09-13T09:27:00;2.60;;;1.50;;
69410;SDS011;56604;48.652;9.194;2022-09-13T09:29:26;1.73;;;1.63;;
69410;SDS011;56604;48.652;9.194;2022-09-13T09:37:39;2.87;;;1.97;;
69410;SDS011;56604;48.652;9.194;2022-09-13T09:40:08;2.13;;;1.70;;
69410;SDS011;56604;48.652;9.194;2022-09-13T09:42:41;2.13;;;1.90;;
69410;SDS011;56604;48.652;9.194;2022-09-13T09:45:18;4.43;;;1.53;;
69410;SDS011;56604;48.652;9.194;2022-09-13T09:47:58;1.50;;;1.47;;
69410;SDS011;56604;48.652;9.194;2022-09-13T09:50:29;3.93;;;2.20;;
69410;SDS011;56604;48.652;9.194;2022-09-13T09:53:18;3.17;;;1.30;;
69410;SDS011;56604;48.652;9.194;2022-09-13T09:55:50;2.00;;;1.90;;
69410;SDS011;56604;48.652;9.194;2022-09-13T09:58:35;5.07;;;1.60;;
69410;SDS011;56604;48.652;9.194;2022-09-13T10:01:13;1.60;;;1.40;;
69410;SDS011;56604;48.652;9.194;2022-09-13T10:03:40;2.20;;;1.67;;
69410;SDS011;56604;48.652;9.194;2022-09-13T10:06:07;2.00;;;1.80;;
69410;SDS011;56604;48.652;9.194;2022-09-13T10:08:36;7.83;;;1.90;;
69410;SDS011;56604;48.652;9.194;2022-09-13T10:11:04;7.20;;;2.03;;
69410;SDS011;56604;48.652;9.194;2022-09-13T10:13:30;9.20;;;2.20;;
69410;SDS011;56604;48.652;9.194;2022-09-13T10:15:57;3.70;;;1.80;;
69410;SDS011;56604;48.652;9.194;2022-09-13T10:18:41;2.10;;;2.00;;
69410;SDS011;56604;48.652;9.194;2022-09-13T10:21:15;4.43;;;1.70;;
69410;SDS011;56604;48.652;9.194;2022-09-13T10:23:49;5.80;;;1.60;;
69410;SDS011;56604;48.652;9.194;2022-09-13T10:26:16;3.40;;;2.00;;
69410;SDS011;56604;48.652;9.194;2022-09-13T10:31:29;2.77;;;1.70;;
69410;SDS011;56604;48.652;9.194;2022-09-13T10:34:01;1.83;;;1.73;;
69410;SDS011;56604;48.652;9.194;2022-09-13T10:36:31;1.93;;;1.83;;
69410;SDS011;56604;48.652;9.194;2022-09-13T10:39:05;2.20;;;1.70;;
69410;SDS011;56604;48.652;9.194;2022-09-13T10:41:38;1.73;;;1.47;;
69410;SDS011;56604;48.652;9.194;2022-09-13T10:44:21;6.47;;;2.27;;
69410;SDS011;56604;48.652;9.194;2022-09-13T10:46:48;2.27;;;2.17;;
69410;SDS011;56604;48.652;9.194;2022-09-13T10:52:20;2.17;;;1.80;;
69410;SDS011;56604;48.652;9.194;2022-09-13T10:54:48;8.13;;;1.57;;
69410;SDS011;56604;48.652;9.194;2022-09-13T10:57:33;1.50;;;1.30;;
69410;SDS011;56604;48.652;9.194;2022-09-13T11:00:00;7.73;;;1.67;;
69410;SDS011;56604;48.652;9.194;2022-09-13T11:05:15;1.70;;;1.23;;
69410;SDS011;56604;48.652;9.194;2022-09-13T11:10:28;5.30;;;1.77;;
69410;SDS011;56604;48.652;9.194;2022-09-13T11:15:46;1.37;;;1.00;;
69410;SDS011;56604;48.652;9.194;2022-09-13T11:21:23;0.90;;;0.90;;
69410;SDS011;56604;48.652;9.194;2022-09-13T11:37:43;1.23;;;0.80;;
69410;SDS011;56604;48.652;9.194;2022-09-13T11:45:39;0.90;;;0.70;;
69410;SDS011;56604;48.652;9.194;2022-09-13T11:54:34;0.60;;;0.60;;
69410;SDS011;56604;48.652;9.194;2022-09-13T11:57:04;0.77;;;0.77;;
69410;SDS011;56604;48.652;9.194;2022-09-13T11:59:43;5.50;;;0.73;;
69410;SDS011;56604;48.652;9.194;2022-09-13T12:07:24;0.60;;;0.60;;
69410;SDS011;56604;48.652;9.194;2022-09-13T12:09:59;0.83;;;0.83;;
69410;SDS011;56604;48.652;9.194;2022-09-13T12:12:31;0.70;;;0.70;;
69410;SDS011;56604;48.652;9.194;2022-09-13T12:15:00;0.70;;;0.70;;
69410;SDS011;56604;48.652;9.194;2022-09-13T12:17:33;0.60;;;0.60;;
69410;SDS011;56604;48.652;9.194;2022-09-13T12:20:02;0.80;;;0.80;;
69410;SDS011;56604;48.652;9.194;2022-09-13T12:22:36;0.80;;;0.80;;
69410;SDS011;56604;48.652;9.194;2022-09-13T12:25:03;1.00;;;0.80;;
69410;SDS011;56604;48.652;9.194;2022-09-13T12:27:38;1.33;;;0.87;;
69410;SDS011;56604;48.652;9.194;2022-09-13T12:30:17;0.70;;;0.70;;
69410;SDS011;56604;48.652;9.194;2022-09-13T12:32:44;0.70;;;0.70;;
69410;SDS011;56604;48.652;9.194;2022-09-13T12:43:57;0.73;;;0.60;;
69410;SDS011;56604;48.652;9.194;2022-09-13T12:49:19;0.70;;;0.70;;
69410;SDS011;56604;48.652;9.194;2022-09-13T12:54:24;1.10;;;0.83;;
69410;SDS011;56604;48.652;9.194;2022-09-13T13:05:36;4.03;;;0.80;;
69410;SDS011;56604;48.652;9.194;2022-09-13T13:08:23;8.63;;;1.00;;
69410;SDS011;56604;48.652;9.194;2022-09-13T13:13:33;3.67;;;0.83;;
69410;SDS011;56604;48.652;9.194;2022-09-13T13:16:00;1.17;;;0.93;;
69410;SDS011;56604;48.652;9.194;2022-09-13T13:23:26;0.80;;;0.80;;
69410;SDS011;56604;48.652;9.194;2022-09-13T13:28:48;0.80;;;0.80;;
69410;SDS011;56604;48.652;9.194;2022-09-13T13:31:34;1.10;;;1.00;;
69410;SDS011;56604;48.652;9.194;2022-09-13T13:39:06;0.90;;;0.90;;
69410;SDS011;56604;48.652;9.194;2022-09-13T13:43:59;1.43;;;1.13;;
69410;SDS011;56604;48.652;9.194;2022-09-13T13:46:26;1.10;;;1.10;;
69410;SDS011;56604;48.652;9.194;2022-09-13T13:48:54;4.30;;;1.17;;
69410;SDS011;56604;48.652;9.194;2022-09-13T13:51:21;2.80;;;0.80;;
69410;SDS011;56604;48.652;9.194;2022-09-13T13:56:30;5.57;;;1.10;;
69410;SDS011;56604;48.652;9.194;2022-09-13T13:59:09;1.43;;;0.90;;
69410;SDS011;56604;48.652;9.194;2022-09-13T14:01:43;1.80;;;1.00;;
69410;SDS011;56604;48.652;9.194;2022-09-13T14:07:04;0.90;;;0.90;;
69410;SDS011;56604;48.652;9.194;2022-09-13T14:15:31;0.97;;;0.87;;
69410;SDS011;56604;48.652;9.194;2022-09-13T14:21:04;2.33;;;1.07;;
69410;SDS011;56604;48.652;9.194;2022-09-13T14:23:46;0.70;;;0.70;;
69410;SDS011;56604;48.652;9.194;2022-09-13T14:26:12;1.03;;;0.93;;
69410;SDS011;56604;48.652;9.194;2022-09-13T14:28:37;0.80;;;0.80;;
69410;SDS011;56604;48.652;9.194;2022-09-13T14:31:04;0.80;;;0.80;;
69410;SDS011;56604;48.652;9.194;2022-09-13T14:33:33;0.73;;;0.70;;
69410;SDS011;56604;48.652;9.194;2022-09-13T14:36:03;1.53;;;0.93;;
69410;SDS011;56604;48.652;9.194;2022-09-13T14:38:31;0.73;;;0.73;;
69410;SDS011;56604;48.652;9.194;2022-09-13T14:41:15;1.20;;;1.00;;
69410;SDS011;56604;48.652;9.194;2022-09-13T14:43:43;0.80;;;0.77;;
69410;SDS011;56604;48.652;9.194;2022-09-13T14:48:48;1.73;;;0.90;;
69410;SDS011;56604;48.652;9.194;2022-09-13T14:51:20;2.30;;;1.30;;
69410;SDS011;56604;48.652;9.194;2022-09-13T14:53:53;1.20;;;1.10;;
69410;SDS011;56604;48.652;9.194;2022-09-13T14:59:02;0.83;;;0.80;;
69410;SDS011;56604;48.652;9.194;2022-09-13T15:01:36;1.20;;;1.10;;
69410;SDS011;56604;48.652;9.194;2022-09-13T15:04:02;2.20;;;1.10;;
69410;SDS011;56604;48.652;9.194;2022-09-13T15:06:30;1.57;;;1.30;;
69410;SDS011;56604;48.652;9.194;2022-09-13T15:11:36;1.00;;;1.00;;
69410;SDS011;56604;48.652;9.194;2022-09-13T15:16:58;1.00;;;1.00;;
69410;SDS011;56604;48.652;9.194;2022-09-13T15:19:49;1.10;;;1.00;;
69410;SDS011;56604;48.652;9.194;2022-09-13T15:22:29;1.10;;;1.00;;
69410;SDS011;56604;48.652;9.194;2022-09-13T15:24:57;2.63;;;1.00;;
69410;SDS011;56604;48.652;9.194;2022-09-13T15:30:03;0.83;;;0.83;;
69410;SDS011;56604;48.652;9.194;2022-09-13T15:32:34;2.83;;;0.90;;
69410;SDS011;56604;48.652;9.194;2022-09-13T15:35:15;7.00;;;1.00;;
69410;SDS011;56604;48.652;9.194;2022-09-13T15:37:57;1.10;;;1.10;;
69410;SDS011;56604;48.652;9.194;2022-09-13T15:40:24;1.20;;;1.00;;
69410;SDS011;56604;48.652;9.194;2022-09-13T15:42:53;1.30;;;1.20;;
69410;SDS011;56604;48.652;9.194;2022-09-13T15:45:19;1.80;;;1.23;;
69410;SDS011;56604;48.652;9.194;2022-09-13T15:47:46;10.00;;;1.40;;
69410;SDS011;56604;48.652;9.194;2022-09-13T15:50:20;3.23;;;1.20;;
69410;SDS011;56604;48.652;9.194;2022-09-13T15:52:47;2.90;;;1.17;;
69410;SDS011;56604;48.652;9.194;2022-09-13T15:55:13;1.63;;;1.53;;
69410;SDS011;56604;48.652;9.194;2022-09-13T15:57:38;10.23;;;2.43;;
69410;SDS011;56604;48.652;9.194;2022-09-13T16:00:05;5.30;;;1.00;;
69410;SDS011;56604;48.652;9.194;2022-09-13T16:02:31;1.57;;;1.20;;
69410;SDS011;56604;48.652;9.194;2022-09-13T16:04:58;1.07;;;1.07;;
69410;SDS011;56604;48.652;9.194;2022-09-13T16:07:24;5.73;;;1.43;;
69410;SDS011;56604;48.652;9.194;2022-09-13T16:09:50;4.87;;;1.30;;
69410;SDS011;56604;48.652;9.194;2022-09-13T16:12:16;1.70;;;1.60;;
69410;SDS011;56604;48.652;9.194;2022-09-13T16:14:43;4.17;;;1.30;;
69410;SDS011;56604;48.652;9.194;2022-09-13T16:17:17;2.00;;;1.50;;
69410;SDS011;56604;48.652;9.194;2022-09-13T16:19:45;5.70;;;1.40;;
69410;SDS011;56604;48.652;9.194;2022-09-13T16:22:10;10.23;;;1.80;;
69410;SDS011;56604;48.652;9.194;2022-09-13T16:24:36;3.53;;;1.70;;
69410;SDS011;56604;48.652;9.194;2022-09-13T16:27:02;8.80;;;1.60;;
69410;SDS011;56604;48.652;9.194;2022-09-13T16:29:28;5.70;;;1.50;;
69410;SDS011;56604;48.652;9.194;2022-09-13T16:31:53;3.53;;;1.20;;
69410;SDS011;56604;48.652;9.194;2022-09-13T16:34:19;2.23;;;1.50;;
69410;SDS011;56604;48.652;9.194;2022-09-13T16:36:45;2.17;;;1.70;;
69410;SDS011;56604;48.652;9.194;2022-09-13T16:39:11;2.30;;;1.80;;
69410;SDS011;56604;48.652;9.194;2022-09-13T16:41:37;2.73;;;1.87;;
69410;SDS011;56604;48.652;9.194;2022-09-13T16:44:04;7.20;;;1.60;;
69410;SDS011;56604;48.652;9.194;2022-09-13T16:46:29;4.00;;;1.50;;
69410;SDS011;56604;48.652;9.194;2022-09-13T16:48:55;6.10;;;2.33;;
69410;SDS011;56604;48.652;9.194;2022-09-13T16:51:21;3.30;;;1.70;;
69410;SDS011;56604;48.652;9.194;2022-09-13T16:53:48;9.70;;;1.60;;
69410;SDS011;56604;48.652;9.194;2022-09-13T16:56:15;3.70;;;1.67;;
69410;SDS011;56604;48.652;9.194;2022-09-13T16:58:43;10.30;;;1.97;;
69410;SDS011;56604;48.652;9.194;2022-09-13T17:01:11;3.00;;;1.73;;
69410;SDS011;56604;48.652;9.194;2022-09-13T17:03:38;9.37;;;1.73;;
69410;SDS011;56604;48.652;9.194;2022-09-13T17:06:05;4.63;;;1.90;;
69410;SDS011;56604;48.652;9.194;2022-09-13T17:08:32;9.70;;;1.80;;
69410;SDS011;56604;48.652;9.194;2022-09-13T17:10:59;8.03;;;2.07;;
69410;SDS011;56604;48.652;9.194;2022-09-13T17:13:24;5.90;;;1.80;;
69410;SDS011;56604;48.652;9.194;2022-09-13T17:15:50;5.87;;;2.03;;
69410;SDS011;56604;48.652;9.194;2022-09-13T17:18:16;8.20;;;2.00;;
69410;SDS011;56604;48.652;9.194;2022-09-13T17:20:43;7.03;;;1.87;;
69410;SDS011;56604;48.652;9.194;2022-09-13T17:23:09;4.40;;;1.73;;
69410;SDS011;56604;48.652;9.194;2022-09-13T17:25:35;9.47;;;1.90;;
69410;SDS011;56604;48.652;9.194;2022-09-13T17:28:00;7.63;;;2.10;;
69410;SDS011;56604;48.652;9.194;2022-09-13T17:30:26;2.90;;;2.10;;
69410;SDS011;56604;48.652;9.194;2022-09-13T17:32:51;4.60;;;1.60;;
69410;SDS011;56604;48.652;9.194;2022-09-13T17:35:16;12.43;;;2.17;;
69410;SDS011;56604;48.652;9.194;2022-09-13T17:37:42;5.03;;;2.20;;
69410;SDS011;56604;48.652;9.194;2022-09-13T17:40:07;5.30;;;2.00;;
69410;SDS011;56604;48.652;9.194;2022-09-13T17:42:33;1.80;;;1.70;;
69410;SDS011;56604;48.652;9.194;2022-09-13T17:44:58;2.67;;;2.07;;
69410;SDS011;56604;48.652;9.194;2022-09-13T17:47:23;2.33;;;2.07;;
69410;SDS011;56604;48.652;9.194;2022-09-13T17:49:49;4.53;;;1.87;;
69410;SDS011;56604;48.652;9.194;2022-09-13T17:52:14;1.80;;;1.70;;
69410;SDS011;56604;48.652;9.194;2022-09-13T17:54:39;8.43;;;2.23;;
69410;SDS011;56604;48.652;9.194;2022-09-13T17:57:05;6.43;;;2.03;;
69410;SDS011;56604;48.652;9.194;2022-09-13T17:59:30;7.90;;;2.27;;
69410;SDS011;56604;48.652;9.194;2022-09-13T18:01:56;6.30;;;3.20;;
69410;SDS011;56604;48.652;9.194;2022-09-13T18:04:23;3.63;;;2.20;;
69410;SDS011;56604;48.652;9.194;2022-09-13T18:06:49;3.00;;;2.00;;
69410;SDS011;56604;48.652;9.194;2022-09-13T18:09:16;6.40;;;2.03;;
69410;SDS011;56604;48.652;9.194;2022-09-13T18:11:41;2.67;;;2.20;;
69410;SDS011;56604;48.652;9.194;2022-09-13T18:14:11;10.70;;;8.30;;
69410;SDS011;56604;48.652;9.194;2022-09-13T18:16:37;5.63;;;1.73;;
69410;SDS011;56604;48.652;9.194;2022-09-13T18:19:03;5.07;;;1.90;;
69410;SDS011;56604;48.652;9.194;2022-09-13T18:21:28;6.07;;;1.90;;
69410;SDS011;56604;48.652;9.194;2022-09-13T18:23:55;2.90;;;1.63;;
69410;SDS011;56604;48.652;9.194;2022-09-13T18:26:26;3.70;;;1.63;;